createdAt,value
2019-05-12T00:01:30.309Z,5.60
2019-05-12T00:04:01.438Z,5.60
2019-05-12T00:06:31.667Z,5.60
2019-05-12T00:09:10.604Z,5.60
2019-05-12T00:12:19.651Z,5.50
2019-05-12T00:15:21.062Z,5.50
2019-05-12T00:22:14.938Z,5.50
2019-05-12T00:25:49.108Z,5.40
2019-05-12T00:29:08.901Z,5.40
2019-05-12T00:32:17.808Z,5.30
2019-05-12T00:35:14.198Z,5.30
2019-05-12T00:38:18.920Z,5.30
2019-05-12T00:41:28.260Z,5.20
2019-05-12T00:44:39.066Z,5.20
2019-05-12T00:47:30.578Z,5.20
2019-05-12T00:50:34.397Z,5.20
2019-05-12T00:54:28.975Z,5.10
2019-05-12T00:57:40.990Z,5.10
2019-05-12T01:00:50.942Z,5.10
2019-05-12T01:04:02.042Z,5.10
2019-05-12T01:07:10.588Z,5.10
2019-05-12T01:13:09.397Z,5.20
2019-05-12T01:16:10.938Z,5.20
2019-05-12T01:19:04.137Z,5.20
2019-05-12T01:22:08.084Z,5.20
2019-05-12T01:29:18.806Z,5.20
2019-05-12T01:32:58.183Z,5.20
2019-05-12T01:36:11.596Z,5.20
2019-05-12T01:39:14.731Z,5.10
2019-05-12T01:43:11.469Z,5.10
2019-05-12T01:46:29.631Z,5.10
2019-05-12T01:50:03.966Z,5.10
2019-05-12T01:57:55.107Z,5.10
2019-05-12T02:08:30.723Z,5.10
2019-05-12T02:11:48.332Z,5.10
2019-05-12T02:15:32.727Z,5.10
2019-05-12T02:21:57.981Z,5.20
2019-05-12T02:24:01.082Z,5.30
2019-05-12T02:26:31.172Z,5.30
2019-05-12T02:29:01.168Z,5.40
2019-05-12T02:31:31.053Z,5.40
2019-05-12T02:34:01.005Z,5.40
2019-05-12T02:36:33.977Z,5.40
2019-05-12T02:39:05.345Z,5.50
2019-05-12T02:41:34.876Z,5.50
2019-05-12T02:44:05.424Z,5.50
2019-05-12T02:46:36.703Z,5.60
2019-05-12T02:49:06.639Z,5.60
2019-05-12T02:51:37.445Z,5.60
2019-05-12T02:54:08.520Z,5.70
2019-05-12T02:56:45.939Z,5.70
2019-05-12T02:59:21.375Z,5.80
2019-05-12T03:01:55.092Z,5.80
2019-05-12T03:04:26.962Z,5.90
2019-05-12T03:07:01.868Z,5.90
2019-05-12T03:09:30.741Z,6.00
2019-05-12T03:12:05.528Z,6.00
2019-05-12T03:14:40.315Z,6.00
2019-05-12T03:17:05.170Z,6.10
2019-05-12T03:19:34.868Z,6.10
2019-05-12T03:22:05.146Z,6.20
2019-05-12T03:24:35.148Z,6.30
2019-05-12T03:27:04.616Z,6.30
2019-05-12T03:29:34.601Z,6.40
2019-05-12T03:32:08.222Z,6.40
2019-05-12T03:34:38.218Z,6.50
2019-05-12T03:37:08.157Z,6.50
2019-05-12T03:39:37.882Z,6.60
2019-05-12T03:42:07.432Z,6.60
2019-05-12T03:44:37.084Z,6.70
2019-05-12T03:47:06.719Z,6.80
2019-05-12T03:49:55.487Z,6.80
2019-05-12T03:52:25.285Z,6.80
2019-05-12T03:54:56.181Z,6.90
2019-05-12T03:57:26.228Z,7.00
2019-05-12T03:59:56.811Z,7.00
2019-05-12T04:02:26.521Z,7.10
2019-05-12T04:04:56.106Z,7.20
2019-05-12T04:07:25.726Z,7.20
2019-05-12T04:09:55.321Z,7.30
2019-05-12T04:12:25.633Z,7.30
2019-05-12T04:14:55.513Z,7.40
2019-05-12T04:17:25.032Z,7.50
2019-05-12T04:19:55.044Z,7.50
2019-05-12T04:22:44.717Z,7.60
2019-05-12T04:25:14.908Z,7.60
2019-05-12T04:27:45.244Z,7.70
2019-05-12T04:30:15.119Z,7.70
2019-05-12T04:32:45.392Z,7.70
2019-05-12T04:35:15.299Z,7.80
2019-05-12T04:37:45.164Z,7.80
2019-05-12T04:40:15.210Z,7.90
2019-05-12T04:43:05.868Z,7.90
2019-05-12T04:45:35.229Z,8.00
2019-05-12T04:48:05.796Z,8.00
2019-05-12T04:50:36.487Z,8.10
2019-05-12T04:53:07.021Z,8.10
2019-05-12T04:55:36.963Z,8.20
2019-05-12T04:58:06.504Z,8.30
2019-05-12T05:00:36.236Z,8.30
2019-05-12T05:03:06.286Z,8.40
2019-05-12T05:05:38.083Z,8.40
2019-05-12T05:08:07.670Z,8.50
2019-05-12T05:10:37.132Z,8.50
2019-05-12T05:13:06.747Z,8.60
2019-05-12T05:15:36.186Z,8.70
2019-05-12T05:18:06.695Z,8.70
2019-05-12T05:20:36.642Z,8.80
2019-05-12T05:23:06.105Z,8.80
2019-05-12T05:25:35.742Z,8.90
2019-05-12T05:28:05.539Z,8.90
2019-05-12T05:30:34.996Z,9.00
2019-05-12T05:33:05.030Z,9.00
2019-05-12T05:35:39.692Z,9.10
2019-05-12T05:38:10.886Z,9.10
2019-05-12T05:40:59.665Z,9.10
2019-05-12T05:43:27.914Z,9.20
2019-05-12T05:46:02.509Z,9.20
2019-05-12T05:48:31.695Z,9.30
2019-05-12T05:50:59.871Z,9.30
2019-05-12T05:53:30.722Z,9.30
2019-05-12T05:56:00.504Z,9.30
2019-05-12T05:58:30.274Z,9.30
2019-05-12T06:01:03.745Z,9.30
2019-05-12T06:03:33.695Z,9.30
2019-05-12T06:06:10.737Z,9.40
2019-05-12T06:08:33.914Z,9.40
2019-05-12T06:11:04.840Z,9.40
2019-05-12T06:13:34.663Z,9.40
2019-05-12T06:16:04.548Z,9.40
2019-05-12T06:18:54.426Z,9.40
2019-05-12T06:21:24.269Z,9.40
2019-05-12T06:23:54.035Z,9.40
2019-05-12T06:26:30.941Z,9.40
2019-05-12T06:28:57.685Z,9.40
2019-05-12T06:31:29.740Z,9.40
2019-05-12T06:33:56.942Z,9.40
2019-05-12T06:36:27.331Z,9.40
2019-05-12T06:38:57.658Z,9.50
2019-05-12T06:41:27.310Z,9.60
2019-05-12T06:43:57.087Z,9.70
2019-05-12T06:46:26.663Z,9.70
2019-05-12T06:49:00.789Z,9.80
2019-05-12T06:51:27.236Z,9.80
2019-05-12T06:54:00.814Z,9.80
2019-05-12T06:56:27.902Z,9.90
2019-05-12T06:59:01.028Z,9.90
2019-05-12T07:01:28.488Z,10.00
2019-05-12T07:04:00.544Z,10.10
2019-05-12T07:06:29.127Z,10.20
2019-05-12T07:09:08.545Z,10.30
2019-05-12T07:11:41.569Z,10.40
2019-05-12T07:14:05.231Z,10.60
2019-05-12T07:16:34.109Z,10.70
2019-05-12T07:19:07.637Z,10.80
2019-05-12T07:21:34.354Z,10.90
2019-05-12T07:24:23.893Z,11.00
2019-05-12T07:27:04.109Z,11.10
2019-05-12T07:29:26.927Z,11.10
2019-05-12T07:31:56.770Z,11.10
2019-05-12T07:34:26.448Z,11.20
2019-05-12T07:36:57.614Z,11.30
2019-05-12T07:39:28.215Z,11.40
2019-05-12T07:42:03.208Z,11.40
2019-05-12T07:44:39.749Z,11.30
2019-05-12T07:47:04.730Z,11.30
2019-05-12T07:49:38.406Z,11.40
2019-05-12T07:52:05.457Z,11.40
2019-05-12T07:54:39.321Z,11.50
2019-05-12T07:57:12.153Z,11.50
2019-05-12T07:59:40.851Z,11.50
2019-05-12T08:02:08.523Z,11.60
2019-05-12T08:04:39.731Z,11.70
2019-05-12T08:07:09.192Z,11.70
2019-05-12T08:09:38.582Z,11.90
2019-05-12T08:12:09.727Z,12.20
2019-05-12T08:14:39.145Z,12.40
2019-05-12T08:17:13.346Z,12.50
2019-05-12T08:19:39.708Z,12.60
2019-05-12T08:22:09.178Z,12.60
2019-05-12T08:24:43.502Z,12.70
2019-05-12T08:27:09.768Z,12.70
2019-05-12T08:29:39.277Z,12.60
2019-05-12T08:32:10.025Z,12.70
2019-05-12T08:34:40.134Z,12.80
2019-05-12T08:37:09.591Z,12.80
2019-05-12T08:39:39.146Z,12.80
2019-05-12T08:42:08.565Z,12.80
2019-05-12T08:44:40.647Z,12.90
2019-05-12T08:47:11.830Z,13.20
2019-05-12T08:49:50.254Z,13.40
2019-05-12T08:52:14.044Z,13.40
2019-05-12T08:54:45.501Z,13.30
2019-05-12T08:57:14.427Z,13.50
2019-05-12T08:59:44.274Z,13.60
2019-05-12T09:02:13.980Z,13.50
2019-05-12T09:04:51.400Z,13.40
2019-05-12T09:07:14.904Z,13.60
2019-05-12T09:09:44.391Z,13.80
2019-05-12T09:12:14.120Z,13.80
2019-05-12T09:14:46.233Z,13.80
2019-05-12T09:17:14.899Z,13.80
2019-05-12T09:19:44.436Z,13.90
2019-05-12T09:22:18.501Z,14.10
2019-05-12T09:24:45.158Z,14.20
2019-05-12T09:27:14.715Z,14.00
2019-05-12T09:29:44.145Z,13.90
2019-05-12T09:32:14.571Z,14.00
2019-05-12T09:34:52.748Z,14.20
2019-05-12T09:37:15.339Z,14.20
2019-05-12T09:39:47.238Z,14.20
2019-05-12T09:42:19.436Z,14.30
2019-05-12T09:44:47.060Z,14.20
2019-05-12T09:47:23.313Z,14.10
2019-05-12T09:49:47.626Z,14.30
2019-05-12T09:52:22.118Z,14.50
2019-05-12T09:54:48.572Z,14.40
2019-05-12T09:57:18.048Z,14.10
2019-05-12T09:59:57.336Z,14.10
2019-05-12T10:02:20.880Z,14.10
2019-05-12T10:04:50.396Z,14.10
2019-05-12T10:07:21.048Z,14.10
2019-05-12T10:09:55.104Z,14.00
2019-05-12T10:12:21.858Z,14.10
2019-05-12T10:14:53.536Z,14.00
2019-05-12T10:17:28.425Z,13.90
2019-05-12T10:19:58.118Z,13.90
2019-05-12T10:22:39.711Z,13.70
2019-05-12T10:25:14.213Z,13.80
2019-05-12T10:27:44.354Z,13.70
2019-05-12T10:30:17.219Z,13.50
2019-05-12T10:32:47.257Z,13.50
2019-05-12T10:35:23.811Z,13.70
2019-05-12T10:37:48.945Z,14.00
2019-05-12T10:40:18.949Z,14.00
2019-05-12T10:45:31.714Z,13.90
2019-05-12T10:48:03.434Z,13.80
2019-05-12T10:50:34.259Z,13.60
2019-05-12T10:53:09.773Z,13.60
2019-05-12T10:55:39.540Z,13.90
2019-05-12T10:58:09.182Z,13.80
2019-05-12T11:00:38.846Z,13.90
2019-05-12T11:03:12.332Z,13.80
2019-05-12T11:05:43.925Z,13.80
2019-05-12T11:08:14.378Z,14.00
2019-05-12T11:10:50.329Z,14.20
2019-05-12T11:13:27.721Z,14.10
2019-05-12T11:15:57.286Z,14.20
2019-05-12T11:18:30.437Z,14.40
2019-05-12T11:20:58.053Z,14.40
2019-05-12T11:23:27.656Z,14.20
2019-05-12T11:25:57.200Z,13.90
2019-05-12T11:28:29.842Z,13.80
2019-05-12T11:31:01.503Z,13.70
2019-05-12T11:33:34.010Z,13.80
2019-05-12T11:36:04.248Z,14.00
2019-05-12T11:38:44.196Z,14.30
2019-05-12T11:41:16.202Z,14.40
2019-05-12T11:43:44.078Z,14.30
2019-05-12T11:46:17.604Z,14.30
2019-05-12T11:48:50.351Z,14.10
2019-05-12T11:51:20.816Z,14.20
2019-05-12T11:53:49.361Z,14.20
2019-05-12T11:56:18.796Z,14.30
2019-05-12T11:58:51.460Z,14.50
2019-05-12T12:01:20.934Z,14.60
2019-05-12T12:03:51.378Z,14.70
2019-05-12T12:06:20.839Z,14.70
2019-05-12T12:08:50.302Z,14.70
2019-05-12T12:11:24.777Z,14.80
2019-05-12T12:13:53.550Z,14.80
2019-05-12T12:16:23.778Z,14.70
2019-05-12T12:19:02.245Z,14.70
2019-05-12T12:21:24.808Z,14.80
2019-05-12T12:23:54.340Z,14.60
2019-05-12T12:26:30.093Z,14.50
2019-05-12T12:28:57.123Z,14.40
2019-05-12T12:31:29.543Z,14.50
2019-05-12T12:33:57.934Z,14.60
2019-05-12T12:36:28.990Z,14.80
2019-05-12T12:38:58.481Z,14.80
2019-05-12T12:41:27.958Z,14.90
2019-05-12T12:44:01.405Z,15.00
2019-05-12T12:46:33.667Z,15.10
2019-05-12T12:49:08.617Z,15.00
2019-05-12T12:51:34.354Z,14.70
2019-05-12T12:54:03.991Z,14.30
2019-05-12T12:56:34.124Z,13.90
2019-05-12T12:59:10.238Z,13.70
2019-05-12T13:01:35.771Z,13.50
2019-05-12T13:04:06.528Z,13.30
2019-05-12T13:06:36.086Z,13.50
2019-05-12T13:09:17.013Z,13.60
2019-05-12T13:11:38.846Z,13.70
2019-05-12T13:14:08.250Z,14.00
2019-05-12T13:16:37.670Z,14.40
2019-05-12T13:19:12.233Z,14.60
2019-05-12T13:21:38.211Z,14.60
2019-05-12T13:24:07.653Z,14.40
2019-05-12T13:26:37.027Z,14.20
2019-05-12T13:29:06.466Z,14.30
2019-05-12T13:31:35.926Z,14.30
2019-05-12T13:34:05.321Z,14.30
2019-05-12T13:36:39.283Z,14.30
2019-05-12T13:39:12.504Z,14.20
2019-05-12T13:41:40.118Z,14.10
2019-05-12T13:44:09.532Z,14.00
2019-05-12T13:46:38.934Z,14.10
2019-05-12T13:49:08.390Z,14.30
2019-05-12T13:51:37.839Z,14.40
2019-05-12T13:54:07.233Z,14.50
2019-05-12T13:56:38.609Z,14.60
2019-05-12T13:59:12.095Z,14.50
2019-05-12T14:01:40.455Z,14.30
2019-05-12T14:04:09.878Z,14.10
2019-05-12T14:06:39.249Z,14.10
2019-05-12T14:09:08.653Z,14.00
2019-05-12T14:11:38.021Z,14.00
2019-05-12T14:14:11.392Z,14.00
2019-05-12T14:16:38.510Z,13.80
2019-05-12T14:19:10.186Z,13.80
2019-05-12T14:21:42.608Z,13.90
2019-05-12T14:24:14.153Z,14.00
2019-05-12T14:26:45.449Z,14.00
2019-05-12T14:29:14.902Z,14.00
2019-05-12T14:31:52.815Z,13.90
2019-05-12T14:34:20.633Z,14.00
2019-05-12T14:36:46.875Z,14.30
2019-05-12T14:39:16.581Z,14.50
2019-05-12T14:41:52.990Z,14.40
2019-05-12T14:44:18.456Z,14.20
2019-05-12T14:46:50.635Z,14.10
2019-05-12T14:49:20.184Z,14.10
2019-05-12T14:51:50.782Z,14.20
2019-05-12T14:54:20.210Z,14.10
2019-05-12T14:56:53.692Z,14.00
2019-05-12T14:59:20.637Z,14.00
2019-05-12T15:01:57.139Z,13.90
2019-05-12T15:04:25.602Z,13.80
2019-05-12T15:06:53.376Z,13.80
2019-05-12T15:09:24.730Z,13.80
2019-05-12T15:11:54.149Z,13.90
2019-05-12T15:14:24.521Z,14.00
2019-05-12T15:16:55.800Z,14.00
2019-05-12T15:19:29.571Z,14.20
2019-05-12T15:21:56.246Z,14.20
2019-05-12T15:24:25.635Z,14.30
2019-05-12T15:27:00.840Z,14.40
2019-05-12T15:29:33.811Z,14.50
2019-05-12T15:32:03.982Z,14.60
2019-05-12T15:34:33.901Z,14.60
2019-05-12T15:37:04.207Z,14.80
2019-05-12T15:39:34.043Z,14.90
2019-05-12T15:42:07.878Z,14.80
2019-05-12T15:44:37.262Z,15.00
2019-05-12T15:47:06.663Z,15.20
2019-05-12T15:49:36.084Z,15.30
2019-05-12T15:52:05.478Z,15.40
2019-05-12T15:54:36.220Z,15.50
2019-05-12T15:57:05.823Z,15.70
2019-05-12T15:59:35.302Z,16.00
2019-05-12T16:02:12.379Z,16.30
2019-05-12T16:04:42.731Z,16.40
2019-05-12T16:07:07.562Z,16.70
2019-05-12T16:09:37.120Z,17.00
2019-05-12T16:12:18.605Z,17.30
2019-05-12T16:14:41.063Z,17.60
2019-05-12T16:17:09.294Z,18.10
2019-05-12T16:19:38.955Z,18.50
2019-05-12T16:22:08.686Z,18.70
2019-05-12T16:24:43.247Z,19.20
2019-05-12T16:27:09.607Z,19.70
2019-05-12T16:29:44.338Z,20.10
2019-05-12T16:32:23.849Z,20.40
2019-05-12T16:34:44.885Z,20.70
2019-05-12T16:37:14.068Z,21.10
2019-05-12T16:39:47.279Z,21.30
2019-05-12T16:42:15.141Z,21.30
2019-05-12T16:44:44.652Z,21.30
2019-05-12T16:47:18.623Z,21.40
2019-05-12T16:49:46.010Z,21.40
2019-05-12T16:52:15.654Z,20.30
2019-05-12T16:54:45.266Z,19.60
2019-05-12T16:57:18.106Z,18.90
2019-05-12T16:59:46.026Z,17.60
2019-05-12T17:02:16.709Z,16.20
2019-05-12T17:04:46.315Z,15.30
2019-05-12T17:07:20.500Z,14.40
2019-05-12T17:09:48.779Z,13.80
2019-05-12T17:12:23.889Z,13.20
2019-05-12T17:14:53.290Z,12.70
2019-05-12T17:17:25.221Z,12.40
2019-05-12T17:19:55.072Z,12.10
2019-05-12T17:22:24.719Z,11.90
2019-05-12T17:24:54.182Z,11.70
2019-05-12T17:27:26.859Z,11.50
2019-05-12T17:29:55.000Z,11.40
2019-05-12T17:32:27.386Z,11.20
2019-05-12T17:34:56.935Z,11.00
2019-05-12T17:37:31.388Z,10.90
2019-05-12T17:39:58.310Z,10.70
2019-05-12T17:42:27.941Z,10.60
2019-05-12T17:44:57.616Z,10.50
2019-05-12T17:47:27.339Z,10.40
2019-05-12T17:50:00.390Z,10.30
2019-05-12T17:52:33.686Z,10.20
2019-05-12T17:55:08.494Z,10.10
2019-05-12T17:57:39.341Z,10.00
2019-05-12T18:00:10.645Z,9.90
2019-05-12T18:02:43.875Z,9.80
2019-05-12T18:05:15.675Z,9.70
2019-05-12T18:07:50.909Z,9.60
2019-05-12T18:10:23.734Z,9.50
2019-05-12T18:12:58.960Z,9.50
2019-05-12T18:15:33.235Z,9.40
2019-05-12T18:17:59.299Z,9.30
2019-05-12T18:20:31.288Z,9.20
2019-05-12T18:23:04.364Z,9.10
2019-05-12T18:25:36.529Z,8.90
2019-05-12T18:28:08.458Z,8.80
2019-05-12T18:30:37.985Z,8.80
2019-05-12T18:33:09.649Z,8.60
2019-05-12T18:35:39.356Z,8.50
2019-05-12T18:38:23.038Z,8.40
2019-05-12T18:40:49.342Z,8.30
2019-05-12T18:43:18.861Z,8.20
2019-05-12T18:45:57.216Z,8.10
2019-05-12T18:48:25.299Z,8.00
2019-05-12T18:50:53.426Z,7.90
2019-05-12T18:53:31.847Z,7.80
2019-05-12T18:56:00.272Z,7.70
2019-05-12T18:58:31.296Z,7.70
2019-05-12T19:01:04.532Z,7.70
2019-05-12T19:03:47.142Z,7.60
2019-05-12T19:06:05.377Z,7.60
2019-05-12T19:08:34.929Z,7.50
2019-05-12T19:11:18.960Z,7.50
2019-05-12T19:13:43.163Z,7.50
2019-05-12T19:16:14.222Z,7.40
2019-05-12T19:18:47.824Z,7.40
2019-05-12T19:21:16.654Z,7.30
2019-05-12T19:23:46.847Z,7.20
2019-05-12T19:26:19.074Z,7.10
2019-05-12T19:28:55.974Z,7.10
2019-05-12T19:31:24.906Z,7.00
2019-05-12T19:34:15.745Z,6.90
2019-05-12T19:36:36.086Z,6.80
2019-05-12T19:39:06.452Z,6.80
2019-05-12T19:41:38.039Z,6.80
2019-05-12T19:44:07.791Z,6.80
2019-05-12T19:46:39.883Z,6.70
2019-05-12T19:49:11.034Z,6.70
2019-05-12T19:51:40.814Z,6.60
2019-05-12T19:54:14.007Z,6.50
2019-05-12T19:56:43.881Z,6.50
2019-05-12T19:59:14.665Z,6.40
2019-05-12T20:01:45.085Z,6.30
2019-05-12T20:04:28.825Z,6.30
2019-05-12T20:06:49.635Z,6.20
2019-05-12T20:09:19.825Z,6.20
2019-05-12T20:11:49.764Z,6.20
2019-05-12T20:14:21.484Z,6.20
2019-05-12T20:16:51.112Z,6.10
2019-05-12T20:19:25.453Z,6.10
2019-05-12T20:21:58.736Z,6.00
2019-05-12T20:24:31.394Z,6.00
2019-05-12T20:27:17.074Z,6.00
2019-05-12T20:29:53.839Z,5.90
2019-05-12T20:52:24.452Z,5.70
2019-05-12T20:55:46.496Z,5.60
2019-05-12T20:58:35.390Z,5.50
2019-05-12T21:01:47.921Z,5.40
2019-05-12T21:04:37.124Z,5.40
2019-05-12T21:07:26.796Z,5.30
2019-05-12T21:10:03.923Z,5.30
2019-05-12T21:12:40.185Z,5.20
2019-05-12T21:15:16.561Z,5.10
2019-05-12T21:17:46.846Z,5.10
2019-05-12T21:20:26.564Z,5.10
2019-05-12T21:22:58.258Z,5.00
2019-05-12T21:25:28.284Z,5.00
2019-05-12T21:28:07.862Z,5.00
2019-05-12T21:30:42.472Z,5.00
2019-05-12T21:33:14.881Z,5.00
2019-05-12T21:35:49.126Z,5.00
2019-05-12T21:38:24.108Z,5.00
2019-05-12T21:40:50.167Z,4.90
2019-05-12T21:43:19.910Z,4.90
2019-05-12T21:45:49.446Z,4.90
2019-05-12T21:48:23.575Z,4.80
2019-05-12T21:50:50.298Z,4.80
2019-05-12T21:53:20.694Z,4.70
2019-05-12T21:55:55.278Z,4.70
2019-05-12T21:58:21.407Z,4.60
2019-05-12T22:00:59.613Z,4.60
2019-05-12T22:03:26.395Z,4.60
2019-05-12T22:05:56.083Z,4.60
2019-05-12T22:08:27.278Z,4.60
2019-05-12T22:11:00.750Z,4.60
2019-05-12T22:13:30.180Z,4.60
2019-05-12T22:15:59.600Z,4.60
2019-05-12T22:18:29.109Z,4.60
2019-05-12T22:21:04.522Z,4.50
2019-05-12T22:23:29.679Z,4.50
2019-05-12T22:26:00.266Z,4.40
2019-05-12T22:28:29.873Z,4.40
2019-05-12T22:30:59.297Z,4.40
2019-05-12T22:33:28.758Z,4.40
2019-05-12T22:36:04.878Z,4.30
2019-05-12T22:38:29.339Z,4.30
2019-05-12T22:40:59.749Z,4.20
2019-05-12T22:43:31.492Z,4.20
2019-05-12T22:46:00.270Z,4.10
2019-05-12T22:48:35.609Z,4.10
2019-05-12T22:51:06.196Z,4.10
2019-05-12T22:53:31.911Z,4.00
2019-05-12T22:56:03.056Z,4.00
2019-05-12T22:58:33.767Z,4.00
2019-05-12T23:01:05.298Z,4.00
2019-05-12T23:03:34.970Z,4.00
2019-05-12T23:06:20.296Z,4.00
2019-05-12T23:08:38.736Z,4.00
2019-05-12T23:11:06.787Z,4.00
2019-05-12T23:13:40.861Z,4.00
2019-05-12T23:16:07.357Z,4.00
2019-05-12T23:18:36.719Z,4.00
2019-05-12T23:21:12.634Z,4.00
2019-05-12T23:23:37.239Z,4.00
2019-05-12T23:26:06.658Z,4.00
2019-05-12T23:28:40.629Z,4.00
2019-05-12T23:31:13.461Z,4.00
2019-05-12T23:33:44.104Z,4.00
2019-05-12T23:36:15.765Z,4.00
2019-05-12T23:38:44.678Z,4.00
2019-05-12T23:41:14.184Z,4.00
2019-05-12T23:43:46.116Z,4.00
2019-05-12T23:46:15.541Z,4.10
2019-05-12T23:48:44.970Z,4.00
2019-05-12T23:51:14.386Z,3.90
2019-05-12T23:53:43.870Z,3.90
2019-05-12T23:56:13.347Z,3.90
2019-05-12T23:58:43.262Z,3.80
